sensor_id;sensor_type;location;lat;lon;timestamp;temperature;humidity
528;DHT22;250;47.712;7.508;2022-11-15T00:02:21;13.10;25.20
528;DHT22;250;47.712;7.508;2022-11-15T00:04:48;13.10;26.00
528;DHT22;250;47.712;7.508;2022-11-15T00:07:17;13.10;25.60
528;DHT22;250;47.712;7.508;2022-11-15T00:09:44;13.10;26.00
528;DHT22;250;47.712;7.508;2022-11-15T00:12:11;13.10;26.60
528;DHT22;250;47.712;7.508;2022-11-15T00:14:38;13.10;27.10
528;DHT22;250;47.712;7.508;2022-11-15T00:17:05;13.10;26.70
528;DHT22;250;47.712;7.508;2022-11-15T00:19:32;13.10;25.90
528;DHT22;250;47.712;7.508;2022-11-15T00:21:59;13.10;25.90
528;DHT22;250;47.712;7.508;2022-11-15T00:24:27;13.20;25.70
528;DHT22;250;47.712;7.508;2022-11-15T00:26:54;13.20;26.10
528;DHT22;250;47.712;7.508;2022-11-15T00:29:21;13.20;26.30
528;DHT22;250;47.712;7.508;2022-11-15T00:31:48;13.20;26.20
528;DHT22;250;47.712;7.508;2022-11-15T00:34:15;13.20;25.50
528;DHT22;250;47.712;7.508;2022-11-15T00:36:42;13.20;26.00
528;DHT22;250;47.712;7.508;2022-11-15T00:39:09;13.20;26.20
528;DHT22;250;47.712;7.508;2022-11-15T00:41:38;13.20;25.80
528;DHT22;250;47.712;7.508;2022-11-15T00:44:05;13.20;25.60
528;DHT22;250;47.712;7.508;2022-11-15T00:46:32;13.30;25.30
528;DHT22;250;47.712;7.508;2022-11-15T00:48:59;13.30;25.60
528;DHT22;250;47.712;7.508;2022-11-15T00:51:26;13.30;25.80
528;DHT22;250;47.712;7.508;2022-11-15T00:53:53;13.30;25.70
528;DHT22;250;47.712;7.508;2022-11-15T00:56:20;13.30;25.80
528;DHT22;250;47.712;7.508;2022-11-15T00:58:48;13.30;25.70
528;DHT22;250;47.712;7.508;2022-11-15T01:01:15;13.40;25.70
528;DHT22;250;47.712;7.508;2022-11-15T01:03:42;13.30;25.30
528;DHT22;250;47.712;7.508;2022-11-15T01:06:10;13.40;25.30
528;DHT22;250;47.712;7.508;2022-11-15T01:08:38;13.40;25.60
528;DHT22;250;47.712;7.508;2022-11-15T01:11:07;13.40;25.40
528;DHT22;250;47.712;7.508;2022-11-15T01:13:36;13.30;25.70
528;DHT22;250;47.712;7.508;2022-11-15T01:16:08;13.30;25.70
528;DHT22;250;47.712;7.508;2022-11-15T01:18:36;13.40;25.50
528;DHT22;250;47.712;7.508;2022-11-15T01:21:07;13.40;25.50
528;DHT22;250;47.712;7.508;2022-11-15T01:23:34;13.40;25.10
528;DHT22;250;47.712;7.508;2022-11-15T01:26:02;13.40;24.50
528;DHT22;250;47.712;7.508;2022-11-15T01:28:31;13.40;24.40
528;DHT22;250;47.712;7.508;2022-11-15T01:30:59;13.50;24.30
528;DHT22;250;47.712;7.508;2022-11-15T01:33:28;13.50;24.50
528;DHT22;250;47.712;7.508;2022-11-15T01:35:56;13.50;24.50
528;DHT22;250;47.712;7.508;2022-11-15T01:38:23;13.50;25.20
528;DHT22;250;47.712;7.508;2022-11-15T01:40:50;13.50;25.60
528;DHT22;250;47.712;7.508;2022-11-15T01:43:25;13.40;26.00
528;DHT22;250;47.712;7.508;2022-11-15T01:45:56;13.30;25.90
528;DHT22;250;47.712;7.508;2022-11-15T01:48:32;13.30;26.30
528;DHT22;250;47.712;7.508;2022-11-15T01:51:01;13.20;26.60
528;DHT22;250;47.712;7.508;2022-11-15T01:53:30;13.20;27.20
528;DHT22;250;47.712;7.508;2022-11-15T01:55:59;13.20;27.10
528;DHT22;250;47.712;7.508;2022-11-15T01:58:28;13.20;27.60
528;DHT22;250;47.712;7.508;2022-11-15T02:00:55;13.20;27.70
528;DHT22;250;47.712;7.508;2022-11-15T02:03:28;13.20;27.70
528;DHT22;250;47.712;7.508;2022-11-15T02:05:58;13.20;27.60
528;DHT22;250;47.712;7.508;2022-11-15T02:08:25;13.20;27.50
528;DHT22;250;47.712;7.508;2022-11-15T02:10:52;13.20;27.60
528;DHT22;250;47.712;7.508;2022-11-15T02:13:19;13.30;27.70
528;DHT22;250;47.712;7.508;2022-11-15T02:15:56;13.30;27.70
528;DHT22;250;47.712;7.508;2022-11-15T02:18:30;13.30;28.20
528;DHT22;250;47.712;7.508;2022-11-15T02:21:09;13.20;28.20
528;DHT22;250;47.712;7.508;2022-11-15T02:27:10;13.10;28.40
528;DHT22;250;47.712;7.508;2022-11-15T02:32:42;13.00;28.80
528;DHT22;250;47.712;7.508;2022-11-15T02:35:16;12.90;28.00
528;DHT22;250;47.712;7.508;2022-11-15T02:37:53;13.00;27.70
528;DHT22;250;47.712;7.508;2022-11-15T02:40:28;13.00;28.40
528;DHT22;250;47.712;7.508;2022-11-15T02:43:06;12.90;28.90
528;DHT22;250;47.712;7.508;2022-11-15T02:45:55;12.80;29.30
528;DHT22;250;47.712;7.508;2022-11-15T02:48:25;12.80;29.80
528;DHT22;250;47.712;7.508;2022-11-15T02:50:53;12.90;29.10
528;DHT22;250;47.712;7.508;2022-11-15T02:53:24;12.90;30.60
528;DHT22;250;47.712;7.508;2022-11-15T02:55:52;12.80;31.10
528;DHT22;250;47.712;7.508;2022-11-15T02:58:37;12.70;31.40
528;DHT22;250;47.712;7.508;2022-11-15T03:01:15;12.70;31.20
528;DHT22;250;47.712;7.508;2022-11-15T03:03:57;12.80;30.80
528;DHT22;250;47.712;7.508;2022-11-15T03:06:32;12.90;31.00
528;DHT22;250;47.712;7.508;2022-11-15T03:09:07;12.80;32.00
528;DHT22;250;47.712;7.508;2022-11-15T03:11:39;12.80;31.70
528;DHT22;250;47.712;7.508;2022-11-15T03:14:14;12.80;32.00
528;DHT22;250;47.712;7.508;2022-11-15T03:16:48;12.80;32.20
528;DHT22;250;47.712;7.508;2022-11-15T03:19:25;12.70;32.10
528;DHT22;250;47.712;7.508;2022-11-15T03:21:54;12.70;32.10
528;DHT22;250;47.712;7.508;2022-11-15T03:24:23;12.60;31.80
528;DHT22;250;47.712;7.508;2022-11-15T03:26:52;12.70;30.20
528;DHT22;250;47.712;7.508;2022-11-15T03:29:22;12.70;30.20
528;DHT22;250;47.712;7.508;2022-11-15T03:31:55;12.80;29.60
528;DHT22;250;47.712;7.508;2022-11-15T03:34:29;13.00;30.30
528;DHT22;250;47.712;7.508;2022-11-15T03:36:58;12.90;30.50
528;DHT22;250;47.712;7.508;2022-11-15T03:39:26;12.90;30.10
528;DHT22;250;47.712;7.508;2022-11-15T03:42:01;12.90;29.00
528;DHT22;250;47.712;7.508;2022-11-15T03:44:37;12.90;28.80
528;DHT22;250;47.712;7.508;2022-11-15T03:47:09;13.00;28.30
528;DHT22;250;47.712;7.508;2022-11-15T03:49:42;13.00;28.20
528;DHT22;250;47.712;7.508;2022-11-15T03:52:11;13.10;28.20
528;DHT22;250;47.712;7.508;2022-11-15T03:54:49;13.10;29.40
528;DHT22;250;47.712;7.508;2022-11-15T03:57:16;13.00;30.50
528;DHT22;250;47.712;7.508;2022-11-15T03:59:43;13.00;31.50
528;DHT22;250;47.712;7.508;2022-11-15T04:02:12;12.90;32.30
528;DHT22;250;47.712;7.508;2022-11-15T04:04:40;12.80;32.60
528;DHT22;250;47.712;7.508;2022-11-15T04:07:07;12.70;32.70
528;DHT22;250;47.712;7.508;2022-11-15T04:09:34;12.60;33.60
528;DHT22;250;47.712;7.508;2022-11-15T04:12:22;12.50;34.10
528;DHT22;250;47.712;7.508;2022-11-15T04:14:56;12.40;34.60
528;DHT22;250;47.712;7.508;2022-11-15T04:17:34;12.50;34.90
528;DHT22;250;47.712;7.508;2022-11-15T04:20:03;12.40;34.80
528;DHT22;250;47.712;7.508;2022-11-15T04:22:47;12.40;35.10
528;DHT22;250;47.712;7.508;2022-11-15T04:25:32;12.40;35.40
528;DHT22;250;47.712;7.508;2022-11-15T04:27:59;12.40;35.60
528;DHT22;250;47.712;7.508;2022-11-15T04:30:26;12.40;35.30
528;DHT22;250;47.712;7.508;2022-11-15T04:32:53;12.40;35.60
528;DHT22;250;47.712;7.508;2022-11-15T04:35:22;12.40;35.90
528;DHT22;250;47.712;7.508;2022-11-15T04:37:49;12.30;35.90
528;DHT22;250;47.712;7.508;2022-11-15T04:40:15;12.30;36.70
528;DHT22;250;47.712;7.508;2022-11-15T04:42:42;12.30;36.70
528;DHT22;250;47.712;7.508;2022-11-15T04:45:10;12.30;36.70
528;DHT22;250;47.712;7.508;2022-11-15T04:47:37;12.40;36.80
528;DHT22;250;47.712;7.508;2022-11-15T04:50:05;12.40;36.80
528;DHT22;250;47.712;7.508;2022-11-15T04:52:33;12.30;37.10
528;DHT22;250;47.712;7.508;2022-11-15T04:55:00;12.30;37.40
528;DHT22;250;47.712;7.508;2022-11-15T04:57:27;12.30;37.70
528;DHT22;250;47.712;7.508;2022-11-15T04:59:54;12.30;37.80
528;DHT22;250;47.712;7.508;2022-11-15T05:02:21;12.30;38.20
528;DHT22;250;47.712;7.508;2022-11-15T05:04:48;12.30;38.50
528;DHT22;250;47.712;7.508;2022-11-15T05:07:14;12.30;38.90
528;DHT22;250;47.712;7.508;2022-11-15T05:09:43;12.20;39.00
528;DHT22;250;47.712;7.508;2022-11-15T05:12:10;12.20;39.10
528;DHT22;250;47.712;7.508;2022-11-15T05:14:37;12.20;39.90
528;DHT22;250;47.712;7.508;2022-11-15T05:17:04;12.10;39.80
528;DHT22;250;47.712;7.508;2022-11-15T05:19:31;12.20;39.60
528;DHT22;250;47.712;7.508;2022-11-15T05:21:58;12.20;39.50
528;DHT22;250;47.712;7.508;2022-11-15T05:24:25;12.20;39.70
528;DHT22;250;47.712;7.508;2022-11-15T05:26:53;12.10;39.70
528;DHT22;250;47.712;7.508;2022-11-15T05:29:20;12.10;39.90
528;DHT22;250;47.712;7.508;2022-11-15T05:31:47;12.00;40.90
528;DHT22;250;47.712;7.508;2022-11-15T05:34:14;12.00;40.90
528;DHT22;250;47.712;7.508;2022-11-15T05:36:43;12.00;40.80
528;DHT22;250;47.712;7.508;2022-11-15T05:39:11;12.00;41.00
528;DHT22;250;47.712;7.508;2022-11-15T05:41:41;12.00;41.30
528;DHT22;250;47.712;7.508;2022-11-15T05:44:15;12.00;41.30
528;DHT22;250;47.712;7.508;2022-11-15T05:46:44;12.00;41.30
528;DHT22;250;47.712;7.508;2022-11-15T05:49:13;12.00;41.20
528;DHT22;250;47.712;7.508;2022-11-15T05:51:42;11.90;41.20
528;DHT22;250;47.712;7.508;2022-11-15T05:54:10;11.80;41.10
528;DHT22;250;47.712;7.508;2022-11-15T05:56:37;11.80;41.60
528;DHT22;250;47.712;7.508;2022-11-15T05:59:05;11.80;42.10
528;DHT22;250;47.712;7.508;2022-11-15T06:01:34;11.80;42.20
528;DHT22;250;47.712;7.508;2022-11-15T06:04:01;11.70;42.10
528;DHT22;250;47.712;7.508;2022-11-15T06:06:28;11.70;42.40
528;DHT22;250;47.712;7.508;2022-11-15T06:08:55;11.70;42.30
528;DHT22;250;47.712;7.508;2022-11-15T06:11:22;11.70;42.80
528;DHT22;250;47.712;7.508;2022-11-15T06:13:49;11.60;43.20
528;DHT22;250;47.712;7.508;2022-11-15T06:16:16;11.60;43.60
528;DHT22;250;47.712;7.508;2022-11-15T06:18:45;11.60;43.40
528;DHT22;250;47.712;7.508;2022-11-15T06:21:11;11.60;43.40
528;DHT22;250;47.712;7.508;2022-11-15T06:23:38;11.70;43.50
528;DHT22;250;47.712;7.508;2022-11-15T06:26:06;11.60;43.50
528;DHT22;250;47.712;7.508;2022-11-15T06:28:33;11.60;43.40
528;DHT22;250;47.712;7.508;2022-11-15T06:31:03;11.60;43.30
528;DHT22;250;47.712;7.508;2022-11-15T06:33:30;11.60;43.70
528;DHT22;250;47.712;7.508;2022-11-15T06:36:02;11.60;43.60
528;DHT22;250;47.712;7.508;2022-11-15T06:38:29;11.60;43.80
528;DHT22;250;47.712;7.508;2022-11-15T06:41:01;11.60;43.90
528;DHT22;250;47.712;7.508;2022-11-15T06:43:28;11.60;44.10
528;DHT22;250;47.712;7.508;2022-11-15T06:45:56;11.60;43.80
528;DHT22;250;47.712;7.508;2022-11-15T06:48:24;11.60;43.70
528;DHT22;250;47.712;7.508;2022-11-15T06:50:51;11.60;44.50
528;DHT22;250;47.712;7.508;2022-11-15T06:53:20;11.60;44.20
528;DHT22;250;47.712;7.508;2022-11-15T06:55:47;11.50;44.30
528;DHT22;250;47.712;7.508;2022-11-15T06:58:14;11.60;44.20
528;DHT22;250;47.712;7.508;2022-11-15T07:00:41;11.50;44.10
528;DHT22;250;47.712;7.508;2022-11-15T07:03:08;11.60;44.80
528;DHT22;250;47.712;7.508;2022-11-15T07:05:35;11.60;43.70
528;DHT22;250;47.712;7.508;2022-11-15T07:08:03;11.50;44.00
528;DHT22;250;47.712;7.508;2022-11-15T07:10:31;11.60;44.10
528;DHT22;250;47.712;7.508;2022-11-15T07:12:58;11.60;43.50
528;DHT22;250;47.712;7.508;2022-11-15T07:15:26;11.60;43.40
528;DHT22;250;47.712;7.508;2022-11-15T07:17:53;11.60;44.20
528;DHT22;250;47.712;7.508;2022-11-15T07:20:20;11.60;44.20
528;DHT22;250;47.712;7.508;2022-11-15T07:22:47;11.70;43.60
528;DHT22;250;47.712;7.508;2022-11-15T07:25:14;11.70;43.30
528;DHT22;250;47.712;7.508;2022-11-15T07:27:42;11.70;43.00
528;DHT22;250;47.712;7.508;2022-11-15T07:30:10;11.80;43.10
528;DHT22;250;47.712;7.508;2022-11-15T07:32:37;11.90;42.80
528;DHT22;250;47.712;7.508;2022-11-15T07:35:05;11.90;42.40
528;DHT22;250;47.712;7.508;2022-11-15T07:37:32;11.90;42.10
528;DHT22;250;47.712;7.508;2022-11-15T07:39:59;11.90;42.50
528;DHT22;250;47.712;7.508;2022-11-15T07:42:26;11.90;41.90
528;DHT22;250;47.712;7.508;2022-11-15T07:45:11;12.00;41.90
528;DHT22;250;47.712;7.508;2022-11-15T07:47:38;11.90;42.10
528;DHT22;250;47.712;7.508;2022-11-15T07:50:06;11.90;42.60
528;DHT22;250;47.712;7.508;2022-11-15T07:52:33;11.90;42.80
528;DHT22;250;47.712;7.508;2022-11-15T07:55:00;11.90;43.10
528;DHT22;250;47.712;7.508;2022-11-15T07:57:27;11.90;42.80
528;DHT22;250;47.712;7.508;2022-11-15T07:59:54;11.90;43.10
528;DHT22;250;47.712;7.508;2022-11-15T08:02:22;11.90;43.20
528;DHT22;250;47.712;7.508;2022-11-15T08:04:49;11.90;43.30
528;DHT22;250;47.712;7.508;2022-11-15T08:07:16;11.90;43.40
528;DHT22;250;47.712;7.508;2022-11-15T08:09:43;11.90;43.80
528;DHT22;250;47.712;7.508;2022-11-15T08:12:10;11.90;44.00
528;DHT22;250;47.712;7.508;2022-11-15T08:14:37;11.90;43.60
528;DHT22;250;47.712;7.508;2022-11-15T08:17:04;11.90;44.30
528;DHT22;250;47.712;7.508;2022-11-15T08:19:33;11.90;44.10
528;DHT22;250;47.712;7.508;2022-11-15T08:22:00;12.00;44.10
528;DHT22;250;47.712;7.508;2022-11-15T08:24:27;11.90;44.50
528;DHT22;250;47.712;7.508;2022-11-15T08:26:54;11.90;44.60
528;DHT22;250;47.712;7.508;2022-11-15T08:29:21;11.90;45.10
528;DHT22;250;47.712;7.508;2022-11-15T08:31:48;11.90;44.90
528;DHT22;250;47.712;7.508;2022-11-15T08:34:15;11.90;45.30
528;DHT22;250;47.712;7.508;2022-11-15T08:36:43;11.90;44.80
528;DHT22;250;47.712;7.508;2022-11-15T08:39:11;11.90;44.70
528;DHT22;250;47.712;7.508;2022-11-15T08:41:38;12.00;45.00
528;DHT22;250;47.712;7.508;2022-11-15T08:44:05;11.90;44.90
528;DHT22;250;47.712;7.508;2022-11-15T08:46:32;11.90;44.80
528;DHT22;250;47.712;7.508;2022-11-15T08:48:59;11.90;44.70
528;DHT22;250;47.712;7.508;2022-11-15T08:51:26;11.90;44.60
528;DHT22;250;47.712;7.508;2022-11-15T08:53:55;11.90;45.20
528;DHT22;250;47.712;7.508;2022-11-15T08:56:21;12.00;44.10
528;DHT22;250;47.712;7.508;2022-11-15T08:58:49;12.00;43.40
528;DHT22;250;47.712;7.508;2022-11-15T09:01:17;12.10;41.80
528;DHT22;250;47.712;7.508;2022-11-15T09:03:45;12.10;41.40
528;DHT22;250;47.712;7.508;2022-11-15T09:06:12;12.20;40.70
528;DHT22;250;47.712;7.508;2022-11-15T09:08:40;12.20;40.10
528;DHT22;250;47.712;7.508;2022-11-15T09:11:09;12.20;40.40
528;DHT22;250;47.712;7.508;2022-11-15T09:13:37;12.30;39.50
528;DHT22;250;47.712;7.508;2022-11-15T09:16:04;12.40;38.80
528;DHT22;250;47.712;7.508;2022-11-15T09:18:32;12.50;37.70
528;DHT22;250;47.712;7.508;2022-11-15T09:21:00;12.50;37.80
528;DHT22;250;47.712;7.508;2022-11-15T09:23:28;12.50;37.90
528;DHT22;250;47.712;7.508;2022-11-15T09:25:59;12.50;37.60
528;DHT22;250;47.712;7.508;2022-11-15T09:28:28;12.60;37.00
528;DHT22;250;47.712;7.508;2022-11-15T09:30:56;12.60;37.00
528;DHT22;250;47.712;7.508;2022-11-15T09:33:24;12.60;36.60
528;DHT22;250;47.712;7.508;2022-11-15T09:35:52;12.60;37.00
528;DHT22;250;47.712;7.508;2022-11-15T09:38:19;12.70;37.10
528;DHT22;250;47.712;7.508;2022-11-15T09:41:05;12.70;37.10
528;DHT22;250;47.712;7.508;2022-11-15T09:43:44;12.80;37.20
528;DHT22;250;47.712;7.508;2022-11-15T09:46:17;12.80;36.90
528;DHT22;250;47.712;7.508;2022-11-15T09:48:53;12.80;37.10
528;DHT22;250;47.712;7.508;2022-11-15T09:51:27;12.90;37.30
528;DHT22;250;47.712;7.508;2022-11-15T09:54:04;12.90;37.30
528;DHT22;250;47.712;7.508;2022-11-15T09:56:35;12.90;37.90
528;DHT22;250;47.712;7.508;2022-11-15T10:02:04;13.00;38.00
528;DHT22;250;47.712;7.508;2022-11-15T10:04:37;13.00;37.30
528;DHT22;250;47.712;7.508;2022-11-15T10:07:13;13.00;37.40
528;DHT22;250;47.712;7.508;2022-11-15T10:09:47;13.00;37.30
528;DHT22;250;47.712;7.508;2022-11-15T10:12:15;13.00;37.40
528;DHT22;250;47.712;7.508;2022-11-15T10:14:45;13.00;36.40
528;DHT22;250;47.712;7.508;2022-11-15T10:17:25;13.10;36.60
528;DHT22;250;47.712;7.508;2022-11-15T10:20:05;13.10;37.40
528;DHT22;250;47.712;7.508;2022-11-15T10:22:39;13.10;37.60
528;DHT22;250;47.712;7.508;2022-11-15T10:25:17;13.10;38.00
528;DHT22;250;47.712;7.508;2022-11-15T10:27:51;13.10;37.70
528;DHT22;250;47.712;7.508;2022-11-15T10:30:20;13.20;38.20
528;DHT22;250;47.712;7.508;2022-11-15T10:32:48;13.20;37.60
528;DHT22;250;47.712;7.508;2022-11-15T10:35:18;13.20;37.60
528;DHT22;250;47.712;7.508;2022-11-15T10:37:46;13.20;37.50
528;DHT22;250;47.712;7.508;2022-11-15T10:40:17;13.30;37.70
528;DHT22;250;47.712;7.508;2022-11-15T10:42:44;13.30;36.50
528;DHT22;250;47.712;7.508;2022-11-15T10:45:34;13.30;35.80
528;DHT22;250;47.712;7.508;2022-11-15T10:48:21;13.30;35.30
528;DHT22;250;47.712;7.508;2022-11-15T10:50:50;13.30;35.10
528;DHT22;250;47.712;7.508;2022-11-15T10:53:27;13.30;35.60
528;DHT22;250;47.712;7.508;2022-11-15T10:55:56;13.30;35.70
528;DHT22;250;47.712;7.508;2022-11-15T10:58:34;13.40;35.10
528;DHT22;250;47.712;7.508;2022-11-15T11:01:15;13.40;32.80
528;DHT22;250;47.712;7.508;2022-11-15T11:03:44;13.40;32.80
528;DHT22;250;47.712;7.508;2022-11-15T11:06:13;13.50;32.90
528;DHT22;250;47.712;7.508;2022-11-15T11:08:53;13.50;32.20
528;DHT22;250;47.712;7.508;2022-11-15T11:11:21;13.60;31.90
528;DHT22;250;47.712;7.508;2022-11-15T11:13:48;13.60;31.20
528;DHT22;250;47.712;7.508;2022-11-15T11:16:36;13.60;31.40
528;DHT22;250;47.712;7.508;2022-11-15T11:19:31;13.70;31.00
528;DHT22;250;47.712;7.508;2022-11-15T11:22:09;13.70;30.50
528;DHT22;250;47.712;7.508;2022-11-15T11:24:43;13.80;30.10
528;DHT22;250;47.712;7.508;2022-11-15T11:27:21;13.80;30.40
528;DHT22;250;47.712;7.508;2022-11-15T11:30:02;13.80;30.70
528;DHT22;250;47.712;7.508;2022-11-15T11:32:42;13.90;30.00
528;DHT22;250;47.712;7.508;2022-11-15T11:35:20;14.00;29.80
528;DHT22;250;47.712;7.508;2022-11-15T11:37:51;14.00;29.80
528;DHT22;250;47.712;7.508;2022-11-15T11:40:29;14.00;30.00
528;DHT22;250;47.712;7.508;2022-11-15T11:43:03;14.00;30.00
528;DHT22;250;47.712;7.508;2022-11-15T11:45:52;14.00;30.00
528;DHT22;250;47.712;7.508;2022-11-15T11:48:40;14.00;30.00
528;DHT22;250;47.712;7.508;2022-11-15T11:51:13;14.10;30.50
528;DHT22;250;47.712;7.508;2022-11-15T11:53:49;14.20;30.70
528;DHT22;250;47.712;7.508;2022-11-15T11:56:24;14.20;30.30
528;DHT22;250;47.712;7.508;2022-11-15T11:58:54;14.30;30.40
528;DHT22;250;47.712;7.508;2022-11-15T12:01:24;14.30;30.10
528;DHT22;250;47.712;7.508;2022-11-15T12:03:56;14.30;29.50
528;DHT22;250;47.712;7.508;2022-11-15T12:06:31;14.30;29.60
528;DHT22;250;47.712;7.508;2022-11-15T12:09:02;14.30;30.30
528;DHT22;250;47.712;7.508;2022-11-15T12:11:36;14.30;31.00
528;DHT22;250;47.712;7.508;2022-11-15T12:14:13;14.20;32.00
528;DHT22;250;47.712;7.508;2022-11-15T12:16:43;14.20;32.30
528;DHT22;250;47.712;7.508;2022-11-15T12:19:11;14.20;33.20
528;DHT22;250;47.712;7.508;2022-11-15T12:21:43;14.20;33.50
528;DHT22;250;47.712;7.508;2022-11-15T12:24:15;14.20;33.30
528;DHT22;250;47.712;7.508;2022-11-15T12:26:48;14.20;33.50
528;DHT22;250;47.712;7.508;2022-11-15T12:29:19;14.20;33.30
528;DHT22;250;47.712;7.508;2022-11-15T12:31:50;14.30;33.00
528;DHT22;250;47.712;7.508;2022-11-15T12:34:42;14.30;33.10
528;DHT22;250;47.712;7.508;2022-11-15T12:40:34;14.20;33.00
528;DHT22;250;47.712;7.508;2022-11-15T12:46:13;14.20;32.20
528;DHT22;250;47.712;7.508;2022-11-15T12:48:51;14.20;31.50
528;DHT22;250;47.712;7.508;2022-11-15T12:54:52;14.20;31.70
528;DHT22;250;47.712;7.508;2022-11-15T12:57:37;14.20;30.60
528;DHT22;250;47.712;7.508;2022-11-15T13:03:23;14.20;31.30
528;DHT22;250;47.712;7.508;2022-11-15T13:06:01;14.20;31.70
528;DHT22;250;47.712;7.508;2022-11-15T13:08:42;14.20;32.00
528;DHT22;250;47.712;7.508;2022-11-15T13:11:44;14.20;32.10
528;DHT22;250;47.712;7.508;2022-11-15T13:17:30;14.20;31.40
528;DHT22;250;47.712;7.508;2022-11-15T13:22:44;14.20;31.00
528;DHT22;250;47.712;7.508;2022-11-15T13:25:43;14.20;30.60
528;DHT22;250;47.712;7.508;2022-11-15T13:28:21;14.30;30.40
528;DHT22;250;47.712;7.508;2022-11-15T13:30:51;14.30;30.30
528;DHT22;250;47.712;7.508;2022-11-15T13:33:20;14.40;29.30
528;DHT22;250;47.712;7.508;2022-11-15T13:35:51;14.40;29.10
528;DHT22;250;47.712;7.508;2022-11-15T13:38:25;14.40;29.10
528;DHT22;250;47.712;7.508;2022-11-15T13:40:54;14.40;29.10
528;DHT22;250;47.712;7.508;2022-11-15T13:43:28;14.40;29.10
528;DHT22;250;47.712;7.508;2022-11-15T13:46:10;14.40;29.10
528;DHT22;250;47.712;7.508;2022-11-15T13:48:38;14.40;29.10
528;DHT22;250;47.712;7.508;2022-11-15T13:51:08;14.40;29.10
528;DHT22;250;47.712;7.508;2022-11-15T13:53:38;14.50;29.10
528;DHT22;250;47.712;7.508;2022-11-15T13:56:08;14.40;28.50
528;DHT22;250;47.712;7.508;2022-11-15T13:58:37;14.40;28.80
528;DHT22;250;47.712;7.508;2022-11-15T14:01:05;14.40;29.10
528;DHT22;250;47.712;7.508;2022-11-15T14:03:38;14.40;29.10
528;DHT22;250;47.712;7.508;2022-11-15T14:06:12;14.40;28.60
528;DHT22;250;47.712;7.508;2022-11-15T14:08:42;14.40;29.10
528;DHT22;250;47.712;7.508;2022-11-15T14:11:13;14.30;28.30
528;DHT22;250;47.712;7.508;2022-11-15T14:13:50;14.30;29.00
528;DHT22;250;47.712;7.508;2022-11-15T14:16:33;14.40;29.00
528;DHT22;250;47.712;7.508;2022-11-15T14:19:00;14.40;28.50
528;DHT22;250;47.712;7.508;2022-11-15T14:21:28;14.40;29.10
528;DHT22;250;47.712;7.508;2022-11-15T14:24:16;14.40;28.80
528;DHT22;250;47.712;7.508;2022-11-15T14:26:45;14.40;28.80
528;DHT22;250;47.712;7.508;2022-11-15T14:29:25;14.40;29.40
528;DHT22;250;47.712;7.508;2022-11-15T14:31:52;14.40;29.10
528;DHT22;250;47.712;7.508;2022-11-15T14:34:19;14.40;29.40
528;DHT22;250;47.712;7.508;2022-11-15T14:36:48;14.40;28.70
528;DHT22;250;47.712;7.508;2022-11-15T14:39:15;14.40;28.20
528;DHT22;250;47.712;7.508;2022-11-15T14:41:43;14.40;28.30
528;DHT22;250;47.712;7.508;2022-11-15T14:44:11;14.40;27.40
528;DHT22;250;47.712;7.508;2022-11-15T14:46:43;14.30;27.20
528;DHT22;250;47.712;7.508;2022-11-15T14:49:10;14.30;26.50
528;DHT22;250;47.712;7.508;2022-11-15T14:51:38;14.20;26.60
528;DHT22;250;47.712;7.508;2022-11-15T14:54:09;14.30;26.40
528;DHT22;250;47.712;7.508;2022-11-15T14:56:37;14.30;25.60
528;DHT22;250;47.712;7.508;2022-11-15T14:59:05;14.30;25.10
528;DHT22;250;47.712;7.508;2022-11-15T15:01:32;14.30;25.30
528;DHT22;250;47.712;7.508;2022-11-15T15:03:59;14.30;25.30
528;DHT22;250;47.712;7.508;2022-11-15T15:06:28;14.20;25.30
528;DHT22;250;47.712;7.508;2022-11-15T15:08:56;14.20;25.70
528;DHT22;250;47.712;7.508;2022-11-15T15:11:25;14.20;25.80
528;DHT22;250;47.712;7.508;2022-11-15T15:13:53;14.10;26.00
528;DHT22;250;47.712;7.508;2022-11-15T15:16:24;14.10;26.50
528;DHT22;250;47.712;7.508;2022-11-15T15:18:51;14.10;27.20
528;DHT22;250;47.712;7.508;2022-11-15T15:21:22;14.10;27.20
528;DHT22;250;47.712;7.508;2022-11-15T15:23:49;14.00;27.40
528;DHT22;250;47.712;7.508;2022-11-15T15:26:17;14.10;27.60
528;DHT22;250;47.712;7.508;2022-11-15T15:28:44;14.00;27.60
528;DHT22;250;47.712;7.508;2022-11-15T15:31:11;14.00;27.80
528;DHT22;250;47.712;7.508;2022-11-15T15:33:39;14.00;27.40
528;DHT22;250;47.712;7.508;2022-11-15T15:36:10;14.00;27.50
528;DHT22;250;47.712;7.508;2022-11-15T15:38:38;14.10;26.50
528;DHT22;250;47.712;7.508;2022-11-15T15:41:09;14.10;26.50
528;DHT22;250;47.712;7.508;2022-11-15T15:43:37;14.10;25.90
528;DHT22;250;47.712;7.508;2022-11-15T15:46:07;14.10;26.30
528;DHT22;250;47.712;7.508;2022-11-15T15:48:34;14.00;25.90
528;DHT22;250;47.712;7.508;2022-11-15T15:51:04;14.00;25.30
528;DHT22;250;47.712;7.508;2022-11-15T15:53:31;14.00;25.10
528;DHT22;250;47.712;7.508;2022-11-15T15:55:58;14.00;24.90
528;DHT22;250;47.712;7.508;2022-11-15T15:58:25;14.00;24.60
528;DHT22;250;47.712;7.508;2022-11-15T16:00:52;14.00;24.70
528;DHT22;250;47.712;7.508;2022-11-15T16:03:19;13.90;24.70
528;DHT22;250;47.712;7.508;2022-11-15T16:05:46;13.90;23.80
528;DHT22;250;47.712;7.508;2022-11-15T16:08:18;13.90;24.10
528;DHT22;250;47.712;7.508;2022-11-15T16:10:46;13.90;24.00
528;DHT22;250;47.712;7.508;2022-11-15T16:13:13;13.90;24.20
528;DHT22;250;47.712;7.508;2022-11-15T16:15:40;13.90;24.10
528;DHT22;250;47.712;7.508;2022-11-15T16:18:15;13.90;24.00
528;DHT22;250;47.712;7.508;2022-11-15T16:20:43;13.90;24.20
528;DHT22;250;47.712;7.508;2022-11-15T16:23:12;13.90;24.80
528;DHT22;250;47.712;7.508;2022-11-15T16:25:44;13.90;24.80
528;DHT22;250;47.712;7.508;2022-11-15T16:28:17;13.80;24.70
528;DHT22;250;47.712;7.508;2022-11-15T16:30:44;13.80;24.70
528;DHT22;250;47.712;7.508;2022-11-15T16:33:11;13.80;25.00
528;DHT22;250;47.712;7.508;2022-11-15T16:35:38;13.70;25.50
528;DHT22;250;47.712;7.508;2022-11-15T16:38:06;13.70;25.60
528;DHT22;250;47.712;7.508;2022-11-15T16:40:34;13.70;25.70
528;DHT22;250;47.712;7.508;2022-11-15T16:43:03;13.70;26.00
528;DHT22;250;47.712;7.508;2022-11-15T16:45:33;13.60;26.40
528;DHT22;250;47.712;7.508;2022-11-15T16:48:02;13.60;26.40
528;DHT22;250;47.712;7.508;2022-11-15T16:50:31;13.60;26.80
528;DHT22;250;47.712;7.508;2022-11-15T16:53:00;13.60;27.00
528;DHT22;250;47.712;7.508;2022-11-15T16:55:28;13.60;26.90
528;DHT22;250;47.712;7.508;2022-11-15T16:57:56;13.50;27.20
528;DHT22;250;47.712;7.508;2022-11-15T17:00:25;13.50;27.40
528;DHT22;250;47.712;7.508;2022-11-15T17:02:52;13.50;27.40
528;DHT22;250;47.712;7.508;2022-11-15T17:05:22;13.50;28.40
528;DHT22;250;47.712;7.508;2022-11-15T17:07:50;13.50;28.40
528;DHT22;250;47.712;7.508;2022-11-15T17:10:19;13.50;28.40
528;DHT22;250;47.712;7.508;2022-11-15T17:12:47;13.40;28.80
528;DHT22;250;47.712;7.508;2022-11-15T17:15:15;13.40;28.70
528;DHT22;250;47.712;7.508;2022-11-15T17:17:45;13.40;28.90
528;DHT22;250;47.712;7.508;2022-11-15T17:20:18;13.30;29.50
528;DHT22;250;47.712;7.508;2022-11-15T17:22:45;13.30;29.70
528;DHT22;250;47.712;7.508;2022-11-15T17:25:13;13.30;29.90